sensor_id;sensor_type;location;lat;lon;timestamp;temperature;humidity
9033;DHT22;4551;53.164;8.210;2022-07-30T00:00:39;19.10;99.90
9033;DHT22;4551;53.164;8.210;2022-07-30T00:03:08;19.10;99.90
9033;DHT22;4551;53.164;8.210;2022-07-30T00:05:36;19.00;99.90
9033;DHT22;4551;53.164;8.210;2022-07-30T00:08:04;19.00;99.90
9033;DHT22;4551;53.164;8.210;2022-07-30T00:10:33;19.00;99.90
9033;DHT22;4551;53.164;8.210;2022-07-30T00:13:02;19.00;99.90
9033;DHT22;4551;53.164;8.210;2022-07-30T00:15:31;18.90;99.90
9033;DHT22;4551;53.164;8.210;2022-07-30T00:17:59;18.90;99.90
9033;DHT22;4551;53.164;8.210;2022-07-30T00:20:28;18.90;99.90
9033;DHT22;4551;53.164;8.210;2022-07-30T00:23:00;18.90;99.90
9033;DHT22;4551;53.164;8.210;2022-07-30T00:25:29;18.80;99.90
9033;DHT22;4551;53.164;8.210;2022-07-30T00:27:58;18.80;99.90
9033;DHT22;4551;53.164;8.210;2022-07-30T00:30:27;18.80;99.90
9033;DHT22;4551;53.164;8.210;2022-07-30T00:32:56;18.80;99.90
9033;DHT22;4551;53.164;8.210;2022-07-30T00:35:24;18.80;99.90
9033;DHT22;4551;53.164;8.210;2022-07-30T00:37:53;18.70;99.90
9033;DHT22;4551;53.164;8.210;2022-07-30T00:40:22;18.70;99.90
9033;DHT22;4551;53.164;8.210;2022-07-30T00:42:50;18.60;99.90
9033;DHT22;4551;53.164;8.210;2022-07-30T00:45:19;18.60;99.90
9033;DHT22;4551;53.164;8.210;2022-07-30T00:47:49;18.60;99.90
9033;DHT22;4551;53.164;8.210;2022-07-30T00:50:17;18.60;99.90
9033;DHT22;4551;53.164;8.210;2022-07-30T00:52:47;18.60;99.90
9033;DHT22;4551;53.164;8.210;2022-07-30T00:55:15;18.50;99.90
9033;DHT22;4551;53.164;8.210;2022-07-30T00:57:44;18.40;99.90
9033;DHT22;4551;53.164;8.210;2022-07-30T01:00:15;18.40;99.90
9033;DHT22;4551;53.164;8.210;2022-07-30T01:02:43;18.20;99.90
9033;DHT22;4551;53.164;8.210;2022-07-30T01:05:13;18.20;99.90
9033;DHT22;4551;53.164;8.210;2022-07-30T01:07:42;18.20;99.90
9033;DHT22;4551;53.164;8.210;2022-07-30T01:10:14;18.20;99.90
9033;DHT22;4551;53.164;8.210;2022-07-30T01:12:43;18.10;99.90
9033;DHT22;4551;53.164;8.210;2022-07-30T01:15:12;18.10;99.90
9033;DHT22;4551;53.164;8.210;2022-07-30T01:17:40;18.10;99.90
9033;DHT22;4551;53.164;8.210;2022-07-30T01:20:14;18.00;99.90
9033;DHT22;4551;53.164;8.210;2022-07-30T01:22:47;18.00;99.90
9033;DHT22;4551;53.164;8.210;2022-07-30T01:25:26;18.00;99.90
9033;DHT22;4551;53.164;8.210;2022-07-30T01:27:59;18.00;99.90
9033;DHT22;4551;53.164;8.210;2022-07-30T01:30:32;17.90;99.90
9033;DHT22;4551;53.164;8.210;2022-07-30T01:33:02;17.90;99.90
9033;DHT22;4551;53.164;8.210;2022-07-30T01:35:32;17.90;99.90
9033;DHT22;4551;53.164;8.210;2022-07-30T01:38:03;17.80;99.90
9033;DHT22;4551;53.164;8.210;2022-07-30T01:40:31;17.80;99.90
9033;DHT22;4551;53.164;8.210;2022-07-30T01:43:02;17.70;99.90
9033;DHT22;4551;53.164;8.210;2022-07-30T01:45:34;17.60;99.90
9033;DHT22;4551;53.164;8.210;2022-07-30T01:48:12;17.60;99.90
9033;DHT22;4551;53.164;8.210;2022-07-30T01:50:43;17.50;99.90
9033;DHT22;4551;53.164;8.210;2022-07-30T01:53:14;17.50;99.90
9033;DHT22;4551;53.164;8.210;2022-07-30T01:55:44;17.50;99.90
9033;DHT22;4551;53.164;8.210;2022-07-30T01:58:17;17.40;99.90
9033;DHT22;4551;53.164;8.210;2022-07-30T02:00:48;17.40;99.90
9033;DHT22;4551;53.164;8.210;2022-07-30T02:03:17;17.40;99.90
9033;DHT22;4551;53.164;8.210;2022-07-30T02:05:51;17.30;99.90
9033;DHT22;4551;53.164;8.210;2022-07-30T02:08:26;17.30;99.90
9033;DHT22;4551;53.164;8.210;2022-07-30T02:11:01;17.20;99.90
9033;DHT22;4551;53.164;8.210;2022-07-30T02:13:34;17.20;99.90
9033;DHT22;4551;53.164;8.210;2022-07-30T02:16:09;17.10;99.90
9033;DHT22;4551;53.164;8.210;2022-07-30T02:18:49;17.10;99.90
9033;DHT22;4551;53.164;8.210;2022-07-30T02:21:25;17.10;99.90
9033;DHT22;4551;53.164;8.210;2022-07-30T02:24:05;17.10;99.90
9033;DHT22;4551;53.164;8.210;2022-07-30T02:26:37;17.00;99.90
9033;DHT22;4551;53.164;8.210;2022-07-30T02:29:07;16.90;99.90
9033;DHT22;4551;53.164;8.210;2022-07-30T02:31:38;16.90;99.90
9033;DHT22;4551;53.164;8.210;2022-07-30T02:34:08;16.90;99.90
9033;DHT22;4551;53.164;8.210;2022-07-30T02:36:38;16.90;99.90
9033;DHT22;4551;53.164;8.210;2022-07-30T02:39:08;16.80;99.90
9033;DHT22;4551;53.164;8.210;2022-07-30T02:41:40;16.80;99.90
9033;DHT22;4551;53.164;8.210;2022-07-30T02:44:17;16.80;99.90
9033;DHT22;4551;53.164;8.210;2022-07-30T02:46:47;16.70;99.90
9033;DHT22;4551;53.164;8.210;2022-07-30T02:49:18;16.70;99.90
9033;DHT22;4551;53.164;8.210;2022-07-30T02:51:50;16.70;99.90
9033;DHT22;4551;53.164;8.210;2022-07-30T02:54:19;16.70;99.90
9033;DHT22;4551;53.164;8.210;2022-07-30T02:56:49;16.70;99.90
9033;DHT22;4551;53.164;8.210;2022-07-30T02:59:21;16.60;99.90
9033;DHT22;4551;53.164;8.210;2022-07-30T03:01:51;16.60;99.90
9033;DHT22;4551;53.164;8.210;2022-07-30T03:04:20;16.60;99.90
9033;DHT22;4551;53.164;8.210;2022-07-30T03:06:49;16.50;99.90
9033;DHT22;4551;53.164;8.210;2022-07-30T03:09:18;16.50;99.90
9033;DHT22;4551;53.164;8.210;2022-07-30T03:11:49;16.50;99.90
9033;DHT22;4551;53.164;8.210;2022-07-30T03:14:19;16.50;99.90
9033;DHT22;4551;53.164;8.210;2022-07-30T03:16:54;16.40;99.90
9033;DHT22;4551;53.164;8.210;2022-07-30T03:19:24;16.40;99.90
9033;DHT22;4551;53.164;8.210;2022-07-30T03:21:56;16.40;99.90
9033;DHT22;4551;53.164;8.210;2022-07-30T03:24:26;16.40;99.90
9033;DHT22;4551;53.164;8.210;2022-07-30T03:26:56;16.40;99.90
9033;DHT22;4551;53.164;8.210;2022-07-30T03:29:29;16.40;99.90
9033;DHT22;4551;53.164;8.210;2022-07-30T03:31:58;16.30;99.90
9033;DHT22;4551;53.164;8.210;2022-07-30T03:34:31;16.30;99.90
9033;DHT22;4551;53.164;8.210;2022-07-30T03:37:03;16.30;99.90
9033;DHT22;4551;53.164;8.210;2022-07-30T03:39:33;16.30;99.90
9033;DHT22;4551;53.164;8.210;2022-07-30T03:42:02;16.30;99.90
9033;DHT22;4551;53.164;8.210;2022-07-30T03:44:32;16.30;99.90
9033;DHT22;4551;53.164;8.210;2022-07-30T03:47:02;16.20;99.90
9033;DHT22;4551;53.164;8.210;2022-07-30T03:49:32;16.20;99.90
9033;DHT22;4551;53.164;8.210;2022-07-30T03:52:01;16.20;99.90
9033;DHT22;4551;53.164;8.210;2022-07-30T03:54:31;16.20;99.90
9033;DHT22;4551;53.164;8.210;2022-07-30T03:57:00;16.20;99.90
9033;DHT22;4551;53.164;8.210;2022-07-30T03:59:29;16.10;99.90
9033;DHT22;4551;53.164;8.210;2022-07-30T04:02:00;16.10;99.90
9033;DHT22;4551;53.164;8.210;2022-07-30T04:04:33;16.10;99.90
9033;DHT22;4551;53.164;8.210;2022-07-30T04:07:01;16.10;99.90
9033;DHT22;4551;53.164;8.210;2022-07-30T04:09:29;16.00;99.90
9033;DHT22;4551;53.164;8.210;2022-07-30T04:11:58;16.00;99.90
9033;DHT22;4551;53.164;8.210;2022-07-30T04:14:26;16.00;99.90
9033;DHT22;4551;53.164;8.210;2022-07-30T04:17:01;16.00;99.90
9033;DHT22;4551;53.164;8.210;2022-07-30T04:19:34;16.00;99.90
9033;DHT22;4551;53.164;8.210;2022-07-30T04:22:04;16.00;99.90
9033;DHT22;4551;53.164;8.210;2022-07-30T04:24:34;15.90;99.90
9033;DHT22;4551;53.164;8.210;2022-07-30T04:27:04;15.90;99.90
9033;DHT22;4551;53.164;8.210;2022-07-30T04:29:32;15.90;99.90
9033;DHT22;4551;53.164;8.210;2022-07-30T04:32:03;15.90;99.90
9033;DHT22;4551;53.164;8.210;2022-07-30T04:34:32;15.90;99.90
9033;DHT22;4551;53.164;8.210;2022-07-30T04:37:00;15.90;99.90
9033;DHT22;4551;53.164;8.210;2022-07-30T04:39:29;15.90;99.90
9033;DHT22;4551;53.164;8.210;2022-07-30T04:41:58;15.90;99.90
9033;DHT22;4551;53.164;8.210;2022-07-30T04:44:26;15.90;99.90
9033;DHT22;4551;53.164;8.210;2022-07-30T04:46:54;15.90;99.90
9033;DHT22;4551;53.164;8.210;2022-07-30T04:49:23;15.90;99.90
9033;DHT22;4551;53.164;8.210;2022-07-30T04:51:53;15.90;99.90
9033;DHT22;4551;53.164;8.210;2022-07-30T04:54:22;16.00;99.90
9033;DHT22;4551;53.164;8.210;2022-07-30T04:56:53;16.00;99.90
9033;DHT22;4551;53.164;8.210;2022-07-30T04:59:23;16.00;99.90
9033;DHT22;4551;53.164;8.210;2022-07-30T05:01:56;16.00;99.90
9033;DHT22;4551;53.164;8.210;2022-07-30T05:04:30;16.10;99.90
9033;DHT22;4551;53.164;8.210;2022-07-30T05:06:59;16.10;99.90
9033;DHT22;4551;53.164;8.210;2022-07-30T05:09:29;16.20;99.90
9033;DHT22;4551;53.164;8.210;2022-07-30T05:11:57;16.20;99.90
9033;DHT22;4551;53.164;8.210;2022-07-30T05:14:27;16.20;99.90
9033;DHT22;4551;53.164;8.210;2022-07-30T05:16:55;16.30;99.90
9033;DHT22;4551;53.164;8.210;2022-07-30T05:19:24;16.40;99.90
9033;DHT22;4551;53.164;8.210;2022-07-30T05:21:53;16.40;99.90
9033;DHT22;4551;53.164;8.210;2022-07-30T05:24:22;16.40;99.90
9033;DHT22;4551;53.164;8.210;2022-07-30T05:26:50;16.50;99.90
9033;DHT22;4551;53.164;8.210;2022-07-30T05:29:18;16.50;99.90
9033;DHT22;4551;53.164;8.210;2022-07-30T05:31:47;16.50;99.90
9033;DHT22;4551;53.164;8.210;2022-07-30T05:34:15;16.60;99.90
9033;DHT22;4551;53.164;8.210;2022-07-30T05:36:44;16.70;99.90
9033;DHT22;4551;53.164;8.210;2022-07-30T05:39:16;16.70;99.90
9033;DHT22;4551;53.164;8.210;2022-07-30T05:41:45;16.70;99.90
9033;DHT22;4551;53.164;8.210;2022-07-30T05:44:14;16.80;99.90
9033;DHT22;4551;53.164;8.210;2022-07-30T05:46:49;16.80;99.90
9033;DHT22;4551;53.164;8.210;2022-07-30T05:49:20;16.90;99.90
9033;DHT22;4551;53.164;8.210;2022-07-30T05:51:49;17.00;99.90
9033;DHT22;4551;53.164;8.210;2022-07-30T05:54:18;17.00;99.90
9033;DHT22;4551;53.164;8.210;2022-07-30T05:56:50;17.10;99.90
9033;DHT22;4551;53.164;8.210;2022-07-30T05:59:18;17.10;99.90
9033;DHT22;4551;53.164;8.210;2022-07-30T06:01:47;17.20;99.90
9033;DHT22;4551;53.164;8.210;2022-07-30T06:04:16;17.30;99.90
9033;DHT22;4551;53.164;8.210;2022-07-30T06:06:44;17.30;99.90
9033;DHT22;4551;53.164;8.210;2022-07-30T06:09:12;17.40;99.90
9033;DHT22;4551;53.164;8.210;2022-07-30T06:11:42;17.50;99.90
9033;DHT22;4551;53.164;8.210;2022-07-30T06:14:10;17.50;99.90
9033;DHT22;4551;53.164;8.210;2022-07-30T06:16:39;17.50;99.90
9033;DHT22;4551;53.164;8.210;2022-07-30T06:19:07;17.60;99.90
9033;DHT22;4551;53.164;8.210;2022-07-30T06:21:45;17.60;99.90
9033;DHT22;4551;53.164;8.210;2022-07-30T06:24:32;17.70;99.90
9033;DHT22;4551;53.164;8.210;2022-07-30T06:27:02;17.70;99.90
9033;DHT22;4551;53.164;8.210;2022-07-30T06:29:31;17.80;99.90
9033;DHT22;4551;53.164;8.210;2022-07-30T06:31:59;17.80;99.90
9033;DHT22;4551;53.164;8.210;2022-07-30T06:34:27;17.90;99.90
9033;DHT22;4551;53.164;8.210;2022-07-30T06:36:55;17.90;99.90
9033;DHT22;4551;53.164;8.210;2022-07-30T06:39:24;18.00;99.90
9033;DHT22;4551;53.164;8.210;2022-07-30T06:42:14;18.00;99.90
9033;DHT22;4551;53.164;8.210;2022-07-30T06:44:42;18.10;99.90
9033;DHT22;4551;53.164;8.210;2022-07-30T06:47:10;18.20;99.90
9033;DHT22;4551;53.164;8.210;2022-07-30T06:49:39;18.20;99.90
9033;DHT22;4551;53.164;8.210;2022-07-30T06:52:07;18.30;99.90
9033;DHT22;4551;53.164;8.210;2022-07-30T06:54:35;18.30;99.90
9033;DHT22;4551;53.164;8.210;2022-07-30T06:57:04;18.40;99.90
9033;DHT22;4551;53.164;8.210;2022-07-30T06:59:36;18.40;99.90
9033;DHT22;4551;53.164;8.210;2022-07-30T07:02:23;18.50;99.90
9033;DHT22;4551;53.164;8.210;2022-07-30T07:04:51;18.50;99.90
9033;DHT22;4551;53.164;8.210;2022-07-30T07:07:19;18.60;99.90
9033;DHT22;4551;53.164;8.210;2022-07-30T07:10:09;18.60;99.90
9033;DHT22;4551;53.164;8.210;2022-07-30T07:12:37;18.70;99.90
9033;DHT22;4551;53.164;8.210;2022-07-30T07:15:08;18.70;99.90
9033;DHT22;4551;53.164;8.210;2022-07-30T07:17:37;18.80;99.90
9033;DHT22;4551;53.164;8.210;2022-07-30T07:20:06;18.80;99.90
9033;DHT22;4551;53.164;8.210;2022-07-30T07:22:35;18.90;99.90
9033;DHT22;4551;53.164;8.210;2022-07-30T07:25:04;18.90;99.90
9033;DHT22;4551;53.164;8.210;2022-07-30T07:27:33;19.00;99.90
9033;DHT22;4551;53.164;8.210;2022-07-30T07:30:01;19.10;99.90
9033;DHT22;4551;53.164;8.210;2022-07-30T07:32:34;19.10;99.90
9033;DHT22;4551;53.164;8.210;2022-07-30T07:35:03;19.20;99.90
9033;DHT22;4551;53.164;8.210;2022-07-30T07:37:31;19.30;99.90
9033;DHT22;4551;53.164;8.210;2022-07-30T07:40:00;19.30;99.90
9033;DHT22;4551;53.164;8.210;2022-07-30T07:42:28;19.30;99.90
9033;DHT22;4551;53.164;8.210;2022-07-30T07:44:56;19.40;99.90
9033;DHT22;4551;53.164;8.210;2022-07-30T07:47:24;19.50;99.90
9033;DHT22;4551;53.164;8.210;2022-07-30T07:49:55;19.50;99.90
9033;DHT22;4551;53.164;8.210;2022-07-30T07:52:23;19.50;99.90
9033;DHT22;4551;53.164;8.210;2022-07-30T07:54:51;19.60;99.90
9033;DHT22;4551;53.164;8.210;2022-07-30T07:57:21;19.70;99.90
9033;DHT22;4551;53.164;8.210;2022-07-30T07:59:50;19.70;99.90
9033;DHT22;4551;53.164;8.210;2022-07-30T08:02:20;19.80;99.90
9033;DHT22;4551;53.164;8.210;2022-07-30T08:04:48;19.80;99.90
9033;DHT22;4551;53.164;8.210;2022-07-30T08:07:18;19.90;99.90
9033;DHT22;4551;53.164;8.210;2022-07-30T08:09:46;19.90;99.90
9033;DHT22;4551;53.164;8.210;2022-07-30T08:12:14;20.00;99.90
9033;DHT22;4551;53.164;8.210;2022-07-30T08:14:42;20.10;99.90
9033;DHT22;4551;53.164;8.210;2022-07-30T08:17:11;20.10;99.90
9033;DHT22;4551;53.164;8.210;2022-07-30T08:19:40;20.10;99.90
9033;DHT22;4551;53.164;8.210;2022-07-30T08:22:08;20.20;99.90
9033;DHT22;4551;53.164;8.210;2022-07-30T08:24:38;20.30;99.90
9033;DHT22;4551;53.164;8.210;2022-07-30T08:27:06;20.30;99.90
9033;DHT22;4551;53.164;8.210;2022-07-30T08:29:35;20.40;99.90
9033;DHT22;4551;53.164;8.210;2022-07-30T08:32:04;20.40;99.90
9033;DHT22;4551;53.164;8.210;2022-07-30T08:34:32;20.40;99.90
9033;DHT22;4551;53.164;8.210;2022-07-30T08:37:00;20.50;99.90
9033;DHT22;4551;53.164;8.210;2022-07-30T08:39:29;20.50;99.90
9033;DHT22;4551;53.164;8.210;2022-07-30T08:42:01;20.50;99.90
9033;DHT22;4551;53.164;8.210;2022-07-30T08:44:31;20.60;99.90
9033;DHT22;4551;53.164;8.210;2022-07-30T08:47:00;20.70;99.90
9033;DHT22;4551;53.164;8.210;2022-07-30T08:49:32;20.70;99.90
9033;DHT22;4551;53.164;8.210;2022-07-30T08:52:01;20.80;99.90
9033;DHT22;4551;53.164;8.210;2022-07-30T08:54:30;20.90;99.90
9033;DHT22;4551;53.164;8.210;2022-07-30T08:57:00;20.90;99.90
9033;DHT22;4551;53.164;8.210;2022-07-30T08:59:31;21.00;99.90
9033;DHT22;4551;53.164;8.210;2022-07-30T09:02:19;21.00;99.90
9033;DHT22;4551;53.164;8.210;2022-07-30T09:04:53;21.00;99.90
9033;DHT22;4551;53.164;8.210;2022-07-30T09:07:22;21.10;99.90
9033;DHT22;4551;53.164;8.210;2022-07-30T09:09:50;21.20;99.90
9033;DHT22;4551;53.164;8.210;2022-07-30T09:12:38;21.20;99.90
9033;DHT22;4551;53.164;8.210;2022-07-30T09:15:10;21.20;99.90
9033;DHT22;4551;53.164;8.210;2022-07-30T09:17:50;21.30;99.90
9033;DHT22;4551;53.164;8.210;2022-07-30T09:20:21;21.40;99.90
9033;DHT22;4551;53.164;8.210;2022-07-30T09:22:51;21.50;99.90
9033;DHT22;4551;53.164;8.210;2022-07-30T09:25:34;21.50;99.90
9033;DHT22;4551;53.164;8.210;2022-07-30T09:28:04;21.50;99.90
9033;DHT22;4551;53.164;8.210;2022-07-30T09:30:44;21.50;99.90
9033;DHT22;4551;53.164;8.210;2022-07-30T09:33:13;21.60;99.90
9033;DHT22;4551;53.164;8.210;2022-07-30T09:35:43;21.60;99.90
9033;DHT22;4551;53.164;8.210;2022-07-30T09:38:12;21.70;99.90
9033;DHT22;4551;53.164;8.210;2022-07-30T09:40:49;21.70;99.90
9033;DHT22;4551;53.164;8.210;2022-07-30T09:43:25;21.70;99.90
9033;DHT22;4551;53.164;8.210;2022-07-30T09:45:56;21.80;99.90
9033;DHT22;4551;53.164;8.210;2022-07-30T09:48:27;21.80;99.90
9033;DHT22;4551;53.164;8.210;2022-07-30T09:50:55;22.00;99.90
9033;DHT22;4551;53.164;8.210;2022-07-30T09:53:23;22.00;99.90
9033;DHT22;4551;53.164;8.210;2022-07-30T09:55:52;22.00;99.90
9033;DHT22;4551;53.164;8.210;2022-07-30T09:58:20;22.00;99.90
9033;DHT22;4551;53.164;8.210;2022-07-30T10:00:57;22.10;99.90
9033;DHT22;4551;53.164;8.210;2022-07-30T10:03:26;22.20;99.90
9033;DHT22;4551;53.164;8.210;2022-07-30T10:06:08;22.20;99.90
9033;DHT22;4551;53.164;8.210;2022-07-30T10:08:39;22.20;99.90
9033;DHT22;4551;53.164;8.210;2022-07-30T10:11:14;22.20;99.90
9033;DHT22;4551;53.164;8.210;2022-07-30T10:13:49;22.20;99.90
9033;DHT22;4551;53.164;8.210;2022-07-30T10:16:21;22.20;99.90
9033;DHT22;4551;53.164;8.210;2022-07-30T10:18:50;22.20;99.90
9033;DHT22;4551;53.164;8.210;2022-07-30T10:21:19;22.30;99.90
9033;DHT22;4551;53.164;8.210;2022-07-30T10:23:52;22.30;99.90
9033;DHT22;4551;53.164;8.210;2022-07-30T10:26:21;22.40;99.90
9033;DHT22;4551;53.164;8.210;2022-07-30T10:28:50;22.50;99.90
9033;DHT22;4551;53.164;8.210;2022-07-30T10:31:20;22.70;99.90
9033;DHT22;4551;53.164;8.210;2022-07-30T10:34:09;22.70;99.90
9033;DHT22;4551;53.164;8.210;2022-07-30T10:36:40;22.70;99.90
9033;DHT22;4551;53.164;8.210;2022-07-30T10:39:13;22.70;99.90
9033;DHT22;4551;53.164;8.210;2022-07-30T10:41:51;22.70;99.90
9033;DHT22;4551;53.164;8.210;2022-07-30T10:44:47;22.70;99.90
9033;DHT22;4551;53.164;8.210;2022-07-30T10:47:19;22.80;99.90
9033;DHT22;4551;53.164;8.210;2022-07-30T10:50:10;22.70;99.90
9033;DHT22;4551;53.164;8.210;2022-07-30T10:52:45;22.90;99.90
9033;DHT22;4551;53.164;8.210;2022-07-30T10:55:18;22.90;99.90
9033;DHT22;4551;53.164;8.210;2022-07-30T10:58:05;23.10;99.90
9033;DHT22;4551;53.164;8.210;2022-07-30T11:00:34;23.20;99.90
9033;DHT22;4551;53.164;8.210;2022-07-30T11:03:14;23.30;99.90
9033;DHT22;4551;53.164;8.210;2022-07-30T11:05:45;23.40;99.90
9033;DHT22;4551;53.164;8.210;2022-07-30T11:08:37;23.40;99.90
9033;DHT22;4551;53.164;8.210;2022-07-30T11:11:46;23.40;99.90
9033;DHT22;4551;53.164;8.210;2022-07-30T11:14:56;23.40;99.90
9033;DHT22;4551;53.164;8.210;2022-07-30T11:18:00;23.50;99.90
9033;DHT22;4551;53.164;8.210;2022-07-30T11:20:32;23.60;99.90
9033;DHT22;4551;53.164;8.210;2022-07-30T11:23:34;23.70;99.90
9033;DHT22;4551;53.164;8.210;2022-07-30T11:26:05;23.70;99.90
9033;DHT22;4551;53.164;8.210;2022-07-30T11:28:42;23.80;99.90
9033;DHT22;4551;53.164;8.210;2022-07-30T11:31:28;23.80;99.90
9033;DHT22;4551;53.164;8.210;2022-07-30T11:34:27;23.90;99.90
9033;DHT22;4551;53.164;8.210;2022-07-30T11:37:12;23.90;99.90
9033;DHT22;4551;53.164;8.210;2022-07-30T11:40:08;24.10;99.90
9033;DHT22;4551;53.164;8.210;2022-07-30T11:42:39;24.20;99.90
9033;DHT22;4551;53.164;8.210;2022-07-30T11:45:24;24.20;99.90
9033;DHT22;4551;53.164;8.210;2022-07-30T11:47:59;24.20;99.90
9033;DHT22;4551;53.164;8.210;2022-07-30T11:50:30;24.30;99.90
9033;DHT22;4551;53.164;8.210;2022-07-30T11:53:01;24.40;99.90
9033;DHT22;4551;53.164;8.210;2022-07-30T11:55:32;24.40;99.90
9033;DHT22;4551;53.164;8.210;2022-07-30T11:58:02;24.50;99.90
9033;DHT22;4551;53.164;8.210;2022-07-30T12:00:36;24.70;99.90
9033;DHT22;4551;53.164;8.210;2022-07-30T12:03:12;24.70;99.90
9033;DHT22;4551;53.164;8.210;2022-07-30T12:05:42;24.90;99.90
9033;DHT22;4551;53.164;8.210;2022-07-30T12:08:18;25.00;99.90
9033;DHT22;4551;53.164;8.210;2022-07-30T12:11:02;25.10;99.90
9033;DHT22;4551;53.164;8.210;2022-07-30T12:13:30;25.20;99.90
9033;DHT22;4551;53.164;8.210;2022-07-30T12:16:11;25.20;99.90
9033;DHT22;4551;53.164;8.210;2022-07-30T12:18:40;25.20;99.90
9033;DHT22;4551;53.164;8.210;2022-07-30T12:21:11;25.20;99.90
9033;DHT22;4551;53.164;8.210;2022-07-30T12:23:52;25.20;99.90
9033;DHT22;4551;53.164;8.210;2022-07-30T12:26:22;25.20;99.90
9033;DHT22;4551;53.164;8.210;2022-07-30T12:28:53;25.20;99.90
9033;DHT22;4551;53.164;8.210;2022-07-30T12:31:22;25.30;99.90
9033;DHT22;4551;53.164;8.210;2022-07-30T12:33:50;25.40;99.90
9033;DHT22;4551;53.164;8.210;2022-07-30T12:36:27;25.50;99.90
9033;DHT22;4551;53.164;8.210;2022-07-30T12:38:57;25.60;99.90
9033;DHT22;4551;53.164;8.210;2022-07-30T12:41:40;25.60;99.90
9033;DHT22;4551;53.164;8.210;2022-07-30T12:44:09;25.70;99.90
9033;DHT22;4551;53.164;8.210;2022-07-30T12:46:39;25.60;99.90
9033;DHT22;4551;53.164;8.210;2022-07-30T12:49:08;25.60;99.90
9033;DHT22;4551;53.164;8.210;2022-07-30T12:51:51;25.50;99.90
9033;DHT22;4551;53.164;8.210;2022-07-30T12:54:27;25.50;99.90
9033;DHT22;4551;53.164;8.210;2022-07-30T12:56:57;25.70;99.90
9033;DHT22;4551;53.164;8.210;2022-07-30T12:59:27;25.80;99.90
9033;DHT22;4551;53.164;8.210;2022-07-30T13:01:57;25.80;99.90
9033;DHT22;4551;53.164;8.210;2022-07-30T13:04:27;25.80;99.90
9033;DHT22;4551;53.164;8.210;2022-07-30T13:07:05;25.70;99.90
9033;DHT22;4551;53.164;8.210;2022-07-30T13:09:37;25.60;99.90
9033;DHT22;4551;53.164;8.210;2022-07-30T13:12:06;25.60;99.90
9033;DHT22;4551;53.164;8.210;2022-07-30T13:14:36;25.70;99.90
9033;DHT22;4551;53.164;8.210;2022-07-30T13:17:04;25.70;99.90
9033;DHT22;4551;53.164;8.210;2022-07-30T13:19:33;25.90;99.90
9033;DHT22;4551;53.164;8.210;2022-07-30T13:22:01;25.90;99.90
9033;DHT22;4551;53.164;8.210;2022-07-30T13:24:29;26.00;99.90
9033;DHT22;4551;53.164;8.210;2022-07-30T13:27:00;26.00;99.90
9033;DHT22;4551;53.164;8.210;2022-07-30T13:29:29;26.10;99.90
9033;DHT22;4551;53.164;8.210;2022-07-30T13:31:57;26.20;99.90
9033;DHT22;4551;53.164;8.210;2022-07-30T13:34:26;26.10;99.90
9033;DHT22;4551;53.164;8.210;2022-07-30T13:36:54;26.20;99.90
9033;DHT22;4551;53.164;8.210;2022-07-30T13:39:22;26.20;99.90
9033;DHT22;4551;53.164;8.210;2022-07-30T13:41:50;26.40;99.90
9033;DHT22;4551;53.164;8.210;2022-07-30T13:44:20;26.60;99.90
9033;DHT22;4551;53.164;8.210;2022-07-30T13:46:48;26.60;99.90
9033;DHT22;4551;53.164;8.210;2022-07-30T13:49:16;26.30;99.90
9033;DHT22;4551;53.164;8.210;2022-07-30T13:51:45;26.70;99.90
9033;DHT22;4551;53.164;8.210;2022-07-30T13:54:14;26.70;99.90
9033;DHT22;4551;53.164;8.210;2022-07-30T13:56:42;26.60;99.90
9033;DHT22;4551;53.164;8.210;2022-07-30T13:59:11;26.60;99.90
9033;DHT22;4551;53.164;8.210;2022-07-30T14:01:40;26.60;99.90
9033;DHT22;4551;53.164;8.210;2022-07-30T14:04:08;26.50;99.90
9033;DHT22;4551;53.164;8.210;2022-07-30T14:06:37;26.60;99.90
9033;DHT22;4551;53.164;8.210;2022-07-30T14:09:05;26.50;99.90
9033;DHT22;4551;53.164;8.210;2022-07-30T14:11:33;26.50;99.90
9033;DHT22;4551;53.164;8.210;2022-07-30T14:14:01;26.40;99.90
9033;DHT22;4551;53.164;8.210;2022-07-30T14:16:31;26.20;99.90
9033;DHT22;4551;53.164;8.210;2022-07-30T14:19:13;26.20;99.90
9033;DHT22;4551;53.164;8.210;2022-07-30T14:21:50;26.40;99.90
9033;DHT22;4551;53.164;8.210;2022-07-30T14:24:20;26.70;99.90
9033;DHT22;4551;53.164;8.210;2022-07-30T14:26:49;26.90;99.90
9033;DHT22;4551;53.164;8.210;2022-07-30T14:29:23;26.80;99.90
9033;DHT22;4551;53.164;8.210;2022-07-30T14:31:52;26.70;99.90
9033;DHT22;4551;53.164;8.210;2022-07-30T14:34:21;26.50;99.90
9033;DHT22;4551;53.164;8.210;2022-07-30T14:36:50;26.50;99.90
9033;DHT22;4551;53.164;8.210;2022-07-30T14:39:18;26.50;99.90
9033;DHT22;4551;53.164;8.210;2022-07-30T14:41:47;26.60;99.90
9033;DHT22;4551;53.164;8.210;2022-07-30T14:44:21;26.50;99.90
9033;DHT22;4551;53.164;8.210;2022-07-30T14:46:50;26.30;99.90
9033;DHT22;4551;53.164;8.210;2022-07-30T14:49:20;26.30;99.90
9033;DHT22;4551;53.164;8.210;2022-07-30T14:51:50;26.20;99.90
9033;DHT22;4551;53.164;8.210;2022-07-30T14:54:19;26.20;99.90
9033;DHT22;4551;53.164;8.210;2022-07-30T14:56:48;26.10;99.90
9033;DHT22;4551;53.164;8.210;2022-07-30T14:59:23;26.00;99.90
9033;DHT22;4551;53.164;8.210;2022-07-30T15:01:52;26.00;99.90
9033;DHT22;4551;53.164;8.210;2022-07-30T15:04:22;25.90;99.90
9033;DHT22;4551;53.164;8.210;2022-07-30T15:06:51;25.90;99.90
9033;DHT22;4551;53.164;8.210;2022-07-30T15:09:19;25.90;99.90
9033;DHT22;4551;53.164;8.210;2022-07-30T15:11:48;25.80;99.90
9033;DHT22;4551;53.164;8.210;2022-07-30T15:14:35;25.70;99.90
9033;DHT22;4551;53.164;8.210;2022-07-30T15:17:03;25.70;99.90
9033;DHT22;4551;53.164;8.210;2022-07-30T15:19:33;25.70;99.90
9033;DHT22;4551;53.164;8.210;2022-07-30T15:22:01;25.70;99.90
9033;DHT22;4551;53.164;8.210;2022-07-30T15:24:31;25.60;99.90
9033;DHT22;4551;53.164;8.210;2022-07-30T15:26:59;25.70;99.90
9033;DHT22;4551;53.164;8.210;2022-07-30T15:29:28;25.70;99.90
9033;DHT22;4551;53.164;8.210;2022-07-30T15:31:57;25.70;99.90
9033;DHT22;4551;53.164;8.210;2022-07-30T15:34:27;25.60;99.90
9033;DHT22;4551;53.164;8.210;2022-07-30T15:37:02;25.50;99.90
9033;DHT22;4551;53.164;8.210;2022-07-30T15:39:31;25.40;99.90
9033;DHT22;4551;53.164;8.210;2022-07-30T15:41:59;25.30;99.90
9033;DHT22;4551;53.164;8.210;2022-07-30T15:44:28;25.20;99.90
9033;DHT22;4551;53.164;8.210;2022-07-30T15:46:57;25.10;99.90
9033;DHT22;4551;53.164;8.210;2022-07-30T15:49:26;25.10;99.90
9033;DHT22;4551;53.164;8.210;2022-07-30T15:51:54;24.90;99.90
9033;DHT22;4551;53.164;8.210;2022-07-30T15:54:26;24.80;99.90
9033;DHT22;4551;53.164;8.210;2022-07-30T15:56:55;24.60;99.90
9033;DHT22;4551;53.164;8.210;2022-07-30T15:59:27;24.50;99.90
9033;DHT22;4551;53.164;8.210;2022-07-30T16:01:56;24.30;99.90
9033;DHT22;4551;53.164;8.210;2022-07-30T16:04:24;24.20;99.90
9033;DHT22;4551;53.164;8.210;2022-07-30T16:06:58;23.90;99.90
9033;DHT22;4551;53.164;8.210;2022-07-30T16:09:28;23.70;99.90
9033;DHT22;4551;53.164;8.210;2022-07-30T16:11:57;23.60;99.90
9033;DHT22;4551;53.164;8.210;2022-07-30T16:14:28;23.60;99.90
9033;DHT22;4551;53.164;8.210;2022-07-30T16:16:56;23.70;99.90
9033;DHT22;4551;53.164;8.210;2022-07-30T16:19:24;23.80;99.90
9033;DHT22;4551;53.164;8.210;2022-07-30T16:21:53;23.90;99.90
9033;DHT22;4551;53.164;8.210;2022-07-30T16:24:21;24.00;99.90
9033;DHT22;4551;53.164;8.210;2022-07-30T16:26:50;24.20;99.90
9033;DHT22;4551;53.164;8.210;2022-07-30T16:29:19;24.40;99.90